sensor_id;sensor_type;location;lat;lon;timestamp;pressure;altitude;pressure_sealevel;temperature;humidity
15604;BME280;7902;49.042;9.092;2022-10-04T00:02:23;99857.22;;;12.99;66.07
15604;BME280;7902;49.042;9.092;2022-10-04T00:04:56;99852.47;;;12.92;66.32
15604;BME280;7902;49.042;9.092;2022-10-04T00:07:30;99847.28;;;12.90;66.22
15604;BME280;7902;49.042;9.092;2022-10-04T00:10:01;99842.16;;;12.89;66.10
15604;BME280;7902;49.042;9.092;2022-10-04T00:12:37;99841.94;;;12.92;66.01
15604;BME280;7902;49.042;9.092;2022-10-04T00:15:19;99841.22;;;12.90;66.24
15604;BME280;7902;49.042;9.092;2022-10-04T00:18:00;99843.75;;;12.79;66.15
15604;BME280;7902;49.042;9.092;2022-10-04T00:25:57;99833.53;;;12.74;66.44
15604;BME280;7902;49.042;9.092;2022-10-04T00:31:18;99835.94;;;12.77;66.27
15604;BME280;7902;49.042;9.092;2022-10-04T00:41:56;99834.38;;;12.74;66.19
15604;BME280;7902;49.042;9.092;2022-10-04T00:44:37;99826.66;;;12.71;66.27
15604;BME280;7902;49.042;9.092;2022-10-04T00:47:33;99836.78;;;12.65;66.30
15604;BME280;7902;49.042;9.092;2022-10-04T00:50:17;99838.50;;;12.66;66.32
15604;BME280;7902;49.042;9.092;2022-10-04T00:52:52;99830.69;;;12.64;66.09
15604;BME280;7902;49.042;9.092;2022-10-04T00:55:53;99824.66;;;12.62;66.07
15604;BME280;7902;49.042;9.092;2022-10-04T00:58:27;99834.25;;;12.63;66.08
15604;BME280;7902;49.042;9.092;2022-10-04T01:00:54;99845.63;;;12.64;66.29
15604;BME280;7902;49.042;9.092;2022-10-04T01:03:28;99842.91;;;12.65;66.34
15604;BME280;7902;49.042;9.092;2022-10-04T01:05:59;99834.25;;;12.63;66.49
15604;BME280;7902;49.042;9.092;2022-10-04T01:08:31;99825.81;;;12.58;66.79
15604;BME280;7902;49.042;9.092;2022-10-04T01:11:02;99829.63;;;12.54;66.24
15604;BME280;7902;49.042;9.092;2022-10-04T01:13:38;99826.03;;;12.55;66.22
15604;BME280;7902;49.042;9.092;2022-10-04T01:16:17;99819.31;;;12.51;66.30
15604;BME280;7902;49.042;9.092;2022-10-04T01:18:43;99818.38;;;12.52;66.70
15604;BME280;7902;49.042;9.092;2022-10-04T01:24:14;99812.13;;;12.53;66.26
15604;BME280;7902;49.042;9.092;2022-10-04T01:26:43;99804.44;;;12.50;66.36
15604;BME280;7902;49.042;9.092;2022-10-04T01:29:23;99800.22;;;12.48;66.28
15604;BME280;7902;49.042;9.092;2022-10-04T01:31:51;99804.66;;;12.47;66.40
15604;BME280;7902;49.042;9.092;2022-10-04T01:34:28;99797.19;;;12.41;66.61
15604;BME280;7902;49.042;9.092;2022-10-04T01:36:57;99787.06;;;12.35;66.63
15604;BME280;7902;49.042;9.092;2022-10-04T01:39:25;99795.06;;;12.33;66.37
15604;BME280;7902;49.042;9.092;2022-10-04T01:42:22;99787.78;;;12.24;67.11
15604;BME280;7902;49.042;9.092;2022-10-04T01:47:52;99787.06;;;12.22;66.42
15604;BME280;7902;49.042;9.092;2022-10-04T01:50:26;99778.41;;;12.20;66.83
15604;BME280;7902;49.042;9.092;2022-10-04T01:52:59;99786.84;;;12.13;66.58
15604;BME280;7902;49.042;9.092;2022-10-04T01:55:35;99788.22;;;12.18;66.24
15604;BME280;7902;49.042;9.092;2022-10-04T01:58:09;99785.47;;;12.20;66.04
15604;BME280;7902;49.042;9.092;2022-10-04T02:00:45;99777.03;;;12.15;66.16
15604;BME280;7902;49.042;9.092;2022-10-04T02:03:17;99772.84;;;12.12;66.21
15604;BME280;7902;49.042;9.092;2022-10-04T02:05:51;99775.38;;;12.14;66.49
15604;BME280;7902;49.042;9.092;2022-10-04T02:08:26;99773.16;;;12.08;66.45
15604;BME280;7902;49.042;9.092;2022-10-04T02:10:54;99779.03;;;12.11;66.51
15604;BME280;7902;49.042;9.092;2022-10-04T02:13:22;99763.38;;;12.10;66.03
15604;BME280;7902;49.042;9.092;2022-10-04T02:15:52;99766.41;;;12.04;66.58
15604;BME280;7902;49.042;9.092;2022-10-04T02:18:19;99770.06;;;12.01;66.14
15604;BME280;7902;49.042;9.092;2022-10-04T02:20:48;99773.69;;;12.00;66.19
15604;BME280;7902;49.042;9.092;2022-10-04T02:23:18;99784.75;;;12.05;66.38
15604;BME280;7902;49.042;9.092;2022-10-04T02:25:44;99781.13;;;12.06;66.22
15604;BME280;7902;49.042;9.092;2022-10-04T02:28:11;99780.09;;;12.09;66.05
15604;BME280;7902;49.042;9.092;2022-10-04T02:30:41;99775.47;;;12.00;66.48
15604;BME280;7902;49.042;9.092;2022-10-04T02:33:09;99773.78;;;11.99;66.61
15604;BME280;7902;49.042;9.092;2022-10-04T02:35:45;99764.94;;;12.00;66.69
15604;BME280;7902;49.042;9.092;2022-10-04T02:38:18;99765.13;;;11.97;66.81
15604;BME280;7902;49.042;9.092;2022-10-04T02:40:54;99762.72;;;11.94;66.67
15604;BME280;7902;49.042;9.092;2022-10-04T02:43:32;99757.44;;;11.94;66.36
15604;BME280;7902;49.042;9.092;2022-10-04T02:46:07;99757.13;;;11.85;66.72
15604;BME280;7902;49.042;9.092;2022-10-04T02:51:16;99755.66;;;11.81;66.06
15604;BME280;7902;49.042;9.092;2022-10-04T02:56:23;99754.19;;;11.63;67.07
15604;BME280;7902;49.042;9.092;2022-10-04T02:58:51;99751.88;;;11.59;66.71
15604;BME280;7902;49.042;9.092;2022-10-04T03:01:25;99744.19;;;11.56;67.31
15604;BME280;7902;49.042;9.092;2022-10-04T03:03:54;99744.41;;;11.53;67.34
15604;BME280;7902;49.042;9.092;2022-10-04T03:06:22;99735.03;;;11.49;66.41
15604;BME280;7902;49.042;9.092;2022-10-04T03:08:55;99735.97;;;11.48;66.57
15604;BME280;7902;49.042;9.092;2022-10-04T03:11:26;99727.72;;;11.39;67.28
15604;BME280;7902;49.042;9.092;2022-10-04T03:13:58;99729.72;;;11.36;66.23
15604;BME280;7902;49.042;9.092;2022-10-04T03:16:25;99726.69;;;11.42;66.84
15604;BME280;7902;49.042;9.092;2022-10-04T03:18:54;99725.75;;;11.43;66.77
15604;BME280;7902;49.042;9.092;2022-10-04T03:21:22;99729.13;;;11.45;65.86
15604;BME280;7902;49.042;9.092;2022-10-04T03:23:50;99733.97;;;11.51;66.00
15604;BME280;7902;49.042;9.092;2022-10-04T03:28:51;99724.75;;;11.58;66.24
15604;BME280;7902;49.042;9.092;2022-10-04T03:31:17;99736.53;;;11.65;66.07
15604;BME280;7902;49.042;9.092;2022-10-04T03:33:45;99727.06;;;11.63;65.88
15604;BME280;7902;49.042;9.092;2022-10-04T03:36:13;99726.00;;;11.65;65.98
15604;BME280;7902;49.042;9.092;2022-10-04T03:38:42;99727.50;;;11.69;66.62
15604;BME280;7902;49.042;9.092;2022-10-04T03:41:10;99728.56;;;11.67;65.98
15604;BME280;7902;49.042;9.092;2022-10-04T03:43:41;99733.06;;;11.65;66.02
15604;BME280;7902;49.042;9.092;2022-10-04T03:46:09;99726.56;;;11.70;66.06
15604;BME280;7902;49.042;9.092;2022-10-04T03:48:39;99725.78;;;11.68;66.02
15604;BME280;7902;49.042;9.092;2022-10-04T03:51:12;99729.94;;;11.72;66.29
15604;BME280;7902;49.042;9.092;2022-10-04T03:53:41;99724.75;;;11.71;65.35
15604;BME280;7902;49.042;9.092;2022-10-04T03:56:27;99715.00;;;11.73;66.45
15604;BME280;7902;49.042;9.092;2022-10-04T03:58:54;99716.69;;;11.74;65.51
15604;BME280;7902;49.042;9.092;2022-10-04T04:01:25;99716.97;;;11.69;65.96
15604;BME280;7902;49.042;9.092;2022-10-04T04:04:24;99712.47;;;11.71;66.17
15604;BME280;7902;49.042;9.092;2022-10-04T04:07:06;99712.78;;;11.67;66.31
15604;BME280;7902;49.042;9.092;2022-10-04T04:09:39;99716.69;;;11.74;66.19
15604;BME280;7902;49.042;9.092;2022-10-04T04:12:16;99712.47;;;11.71;66.19
15604;BME280;7902;49.042;9.092;2022-10-04T04:14:43;99721.09;;;11.73;65.67
15604;BME280;7902;49.042;9.092;2022-10-04T04:17:29;99714.22;;;11.58;67.11
15604;BME280;7902;49.042;9.092;2022-10-04T04:20:03;99712.41;;;11.59;66.96
15604;BME280;7902;49.042;9.092;2022-10-04T04:22:32;99709.41;;;11.77;65.77
15604;BME280;7902;49.042;9.092;2022-10-04T04:25:02;99708.47;;;11.78;66.17
15604;BME280;7902;49.042;9.092;2022-10-04T04:27:33;99711.34;;;11.75;66.07
15604;BME280;7902;49.042;9.092;2022-10-04T04:30:01;99710.56;;;11.73;66.29
15604;BME280;7902;49.042;9.092;2022-10-04T04:32:37;99717.91;;;11.68;65.62
15604;BME280;7902;49.042;9.092;2022-10-04T04:35:06;99718.97;;;11.66;66.53
15604;BME280;7902;49.042;9.092;2022-10-04T04:37:34;99725.91;;;11.67;66.16
15604;BME280;7902;49.042;9.092;2022-10-04T04:40:20;99728.84;;;11.62;66.29
15604;BME280;7902;49.042;9.092;2022-10-04T04:42:47;99729.88;;;11.60;66.61
15604;BME280;7902;49.042;9.092;2022-10-04T04:45:16;99721.06;;;11.61;65.74
15604;BME280;7902;49.042;9.092;2022-10-04T04:47:46;99731.38;;;11.64;66.46
15604;BME280;7902;49.042;9.092;2022-10-04T04:53:02;99746.44;;;11.62;66.34
15604;BME280;7902;49.042;9.092;2022-10-04T04:55:51;99748.44;;;11.58;66.34
15604;BME280;7902;49.042;9.092;2022-10-04T04:58:23;99759.56;;;11.62;66.39
15604;BME280;7902;49.042;9.092;2022-10-04T05:00:58;99760.44;;;11.62;65.88
15604;BME280;7902;49.042;9.092;2022-10-04T05:03:25;99756.31;;;11.58;65.82
15604;BME280;7902;49.042;9.092;2022-10-04T05:05:51;99749.91;;;11.62;65.54
15604;BME280;7902;49.042;9.092;2022-10-04T05:08:27;99755.25;;;11.61;65.71
15604;BME280;7902;49.042;9.092;2022-10-04T05:13:32;99762.69;;;11.54;66.35
15604;BME280;7902;49.042;9.092;2022-10-04T05:16:00;99763.53;;;11.55;65.63
15604;BME280;7902;49.042;9.092;2022-10-04T05:18:29;99746.72;;;11.57;65.89
15604;BME280;7902;49.042;9.092;2022-10-04T05:21:03;99747.59;;;11.58;66.36
15604;BME280;7902;49.042;9.092;2022-10-04T05:23:31;99745.78;;;11.58;65.76
15604;BME280;7902;49.042;9.092;2022-10-04T05:25:58;99743.16;;;11.58;66.03
15604;BME280;7902;49.042;9.092;2022-10-04T05:28:25;99748.22;;;11.61;65.83
15604;BME280;7902;49.042;9.092;2022-10-04T05:34:17;99751.06;;;11.58;65.47
15604;BME280;7902;49.042;9.092;2022-10-04T05:39:44;99744.53;;;11.64;65.90
15604;BME280;7902;49.042;9.092;2022-10-04T05:42:22;99736.84;;;11.61;66.26
15604;BME280;7902;49.042;9.092;2022-10-04T05:44:54;99743.66;;;11.63;65.25
15604;BME280;7902;49.042;9.092;2022-10-04T05:47:24;99747.06;;;11.65;65.40
15604;BME280;7902;49.042;9.092;2022-10-04T05:49:54;99736.44;;;11.67;65.85
15604;BME280;7902;49.042;9.092;2022-10-04T05:58:04;99730.59;;;11.76;65.89
15604;BME280;7902;49.042;9.092;2022-10-04T06:01:11;99731.44;;;11.76;65.86
15604;BME280;7902;49.042;9.092;2022-10-04T06:06:35;99729.94;;;11.72;65.72
15604;BME280;7902;49.042;9.092;2022-10-04T06:09:14;99738.50;;;11.76;65.73
15604;BME280;7902;49.042;9.092;2022-10-04T06:14:39;99735.97;;;11.87;65.63
15604;BME280;7902;49.042;9.092;2022-10-04T06:22:57;99739.78;;;11.96;65.80
15604;BME280;7902;49.042;9.092;2022-10-04T06:25:32;99746.63;;;11.98;65.68
15604;BME280;7902;49.042;9.092;2022-10-04T06:44:31;99751.06;;;12.23;66.29
15604;BME280;7902;49.042;9.092;2022-10-04T06:47:24;99757.38;;;12.33;65.60
15604;BME280;7902;49.042;9.092;2022-10-04T06:52:51;99756.53;;;12.32;65.72
15604;BME280;7902;49.042;9.092;2022-10-04T06:55:36;99757.38;;;12.33;65.66
15604;BME280;7902;49.042;9.092;2022-10-04T06:58:28;99774.84;;;12.34;65.84
15604;BME280;7902;49.042;9.092;2022-10-04T07:01:02;99775.69;;;12.35;66.19
15604;BME280;7902;49.042;9.092;2022-10-04T07:03:38;99776.53;;;12.35;65.71
15604;BME280;7902;49.042;9.092;2022-10-04T07:06:07;99773.47;;;12.41;65.93
15604;BME280;7902;49.042;9.092;2022-10-04T07:11:31;99772.31;;;12.45;66.02
15604;BME280;7902;49.042;9.092;2022-10-04T07:16:38;99780.00;;;12.61;65.72
15604;BME280;7902;49.042;9.092;2022-10-04T07:21:55;99785.97;;;12.63;65.65
15604;BME280;7902;49.042;9.092;2022-10-04T07:27:11;99781.66;;;12.62;65.93
15604;BME280;7902;49.042;9.092;2022-10-04T07:29:40;99762.28;;;12.75;65.87
15604;BME280;7902;49.042;9.092;2022-10-04T07:32:20;99771.00;;;12.76;65.68
15604;BME280;7902;49.042;9.092;2022-10-04T07:34:50;99769.53;;;12.85;65.99
15604;BME280;7902;49.042;9.092;2022-10-04T07:37:20;99766.75;;;12.86;65.68
15604;BME280;7902;49.042;9.092;2022-10-04T07:40:21;99764.09;;;12.99;65.21
15604;BME280;7902;49.042;9.092;2022-10-04T07:42:58;99769.81;;;12.93;64.94
15604;BME280;7902;49.042;9.092;2022-10-04T07:45:31;99781.47;;;13.01;65.48
15604;BME280;7902;49.042;9.092;2022-10-04T07:50:40;99792.00;;;13.14;65.48
15604;BME280;7902;49.042;9.092;2022-10-04T07:53:24;99785.34;;;13.21;65.03
15604;BME280;7902;49.042;9.092;2022-10-04T07:56:05;99770.66;;;13.30;64.65
15604;BME280;7902;49.042;9.092;2022-10-04T08:01:43;99765.28;;;13.31;65.21
15604;BME280;7902;49.042;9.092;2022-10-04T08:05:02;99768.19;;;13.39;64.80
15604;BME280;7902;49.042;9.092;2022-10-04T08:07:15;99776.09;;;13.39;65.38
15604;BME280;7902;49.042;9.092;2022-10-04T08:09:52;99776.38;;;13.47;64.95
15604;BME280;7902;49.042;9.092;2022-10-04T08:18:28;99779.34;;;13.67;64.26
15604;BME280;7902;49.042;9.092;2022-10-04T08:21:04;99773.16;;;13.79;63.82
15604;BME280;7902;49.042;9.092;2022-10-04T08:26:44;99771.38;;;13.90;63.85
15604;BME280;7902;49.042;9.092;2022-10-04T08:38:20;99780.91;;;14.04;63.88
15604;BME280;7902;49.042;9.092;2022-10-04T08:41:26;99791.25;;;14.07;62.22
15604;BME280;7902;49.042;9.092;2022-10-04T08:46:47;99800.63;;;14.11;62.65
15604;BME280;7902;49.042;9.092;2022-10-04T08:55:25;99788.50;;;14.20;61.72
15604;BME280;7902;49.042;9.092;2022-10-04T08:58:15;99773.59;;;14.07;62.64
15604;BME280;7902;49.042;9.092;2022-10-04T09:01:16;99770.69;;;13.99;62.86
15604;BME280;7902;49.042;9.092;2022-10-04T09:06:43;99763.84;;;14.08;63.40
15604;BME280;7902;49.042;9.092;2022-10-04T09:15:22;99763.19;;;14.17;63.90
15604;BME280;7902;49.042;9.092;2022-10-04T09:18:01;99762.94;;;14.20;63.22
15604;BME280;7902;49.042;9.092;2022-10-04T09:26:37;99750.06;;;14.27;63.75
15604;BME280;7902;49.042;9.092;2022-10-04T09:29:30;99744.44;;;14.31;62.69
15604;BME280;7902;49.042;9.092;2022-10-04T09:34:37;99742.53;;;14.33;63.06
15604;BME280;7902;49.042;9.092;2022-10-04T09:49:07;99753.88;;;14.58;62.92
15604;BME280;7902;49.042;9.092;2022-10-04T09:59:42;99752.66;;;14.62;63.16
15604;BME280;7902;49.042;9.092;2022-10-04T10:11:00;99740.28;;;14.73;61.92
15604;BME280;7902;49.042;9.092;2022-10-04T10:19:38;99750.00;;;14.84;62.04
15604;BME280;7902;49.042;9.092;2022-10-04T10:22:46;99744.44;;;14.98;61.75
15604;BME280;7902;49.042;9.092;2022-10-04T10:31:23;99742.06;;;14.84;62.03
15604;BME280;7902;49.042;9.092;2022-10-04T10:42:27;99746.88;;;14.90;62.56
15604;BME280;7902;49.042;9.092;2022-10-04T10:45:09;99736.66;;;14.97;62.55
15604;BME280;7902;49.042;9.092;2022-10-04T10:47:52;99738.91;;;15.01;61.19
15604;BME280;7902;49.042;9.092;2022-10-04T11:13:27;99732.13;;;15.19;62.17
15604;BME280;7902;49.042;9.092;2022-10-04T11:18:56;99712.38;;;15.34;61.53
15604;BME280;7902;49.042;9.092;2022-10-04T11:21:53;99714.16;;;15.34;61.83
15604;BME280;7902;49.042;9.092;2022-10-04T11:30:24;99698.09;;;15.47;61.92
15604;BME280;7902;49.042;9.092;2022-10-04T11:38:50;99688.00;;;15.52;60.82
15604;BME280;7902;49.042;9.092;2022-10-04T11:47:14;99684.59;;;15.61;61.80
15604;BME280;7902;49.042;9.092;2022-10-04T11:55:48;99662.91;;;15.67;61.39
15604;BME280;7902;49.042;9.092;2022-10-04T12:09:27;99668.09;;;15.99;60.89
15604;BME280;7902;49.042;9.092;2022-10-04T12:15:33;99663.06;;;15.96;61.28
15604;BME280;7902;49.042;9.092;2022-10-04T12:26:38;99658.59;;;15.96;61.57
15604;BME280;7902;49.042;9.092;2022-10-04T12:37:27;99647.53;;;16.12;61.02
15604;BME280;7902;49.042;9.092;2022-10-04T12:40:14;99649.50;;;16.10;61.24
15604;BME280;7902;49.042;9.092;2022-10-04T12:42:50;99649.31;;;16.11;61.60
15604;BME280;7902;49.042;9.092;2022-10-04T12:45:36;99637.50;;;16.15;61.56
15604;BME280;7902;49.042;9.092;2022-10-04T12:48:16;99642.13;;;16.23;60.98
15604;BME280;7902;49.042;9.092;2022-10-04T12:54:15;99633.22;;;16.24;61.50
15604;BME280;7902;49.042;9.092;2022-10-04T12:57:53;99631.13;;;16.28;60.89
15604;BME280;7902;49.042;9.092;2022-10-04T13:08:21;99629.81;;;16.43;60.90
15604;BME280;7902;49.042;9.092;2022-10-04T13:11:23;99624.94;;;16.48;60.74
15604;BME280;7902;49.042;9.092;2022-10-04T13:20:19;99628.63;;;16.66;60.72
15604;BME280;7902;49.042;9.092;2022-10-04T13:28:39;99629.63;;;16.84;60.25
15604;BME280;7902;49.042;9.092;2022-10-04T13:31:33;99630.31;;;16.86;60.41
15604;BME280;7902;49.042;9.092;2022-10-04T13:37:04;99627.69;;;17.05;59.94
15604;BME280;7902;49.042;9.092;2022-10-04T13:45:14;99626.00;;;17.24;61.20
15604;BME280;7902;49.042;9.092;2022-10-04T13:48:07;99615.56;;;17.97;58.71
15604;BME280;7902;49.042;9.092;2022-10-04T13:56:46;99610.91;;;18.99;55.74
15604;BME280;7902;49.042;9.092;2022-10-04T14:10:36;99597.50;;;19.26;56.26
15604;BME280;7902;49.042;9.092;2022-10-04T14:16:43;99607.25;;;19.53;54.92
15604;BME280;7902;49.042;9.092;2022-10-04T14:20:06;99606.94;;;19.56;54.87
15604;BME280;7902;49.042;9.092;2022-10-04T14:25:47;99605.19;;;19.47;53.70
15604;BME280;7902;49.042;9.092;2022-10-04T14:31:33;99594.22;;;19.50;54.20
15604;BME280;7902;49.042;9.092;2022-10-04T14:45:10;99579.84;;;19.43;54.23
15604;BME280;7902;49.042;9.092;2022-10-04T14:51:21;99578.16;;;19.42;55.05
15604;BME280;7902;49.042;9.092;2022-10-04T14:54:07;99576.59;;;19.32;54.94
15604;BME280;7902;49.042;9.092;2022-10-04T15:07:21;99575.44;;;19.34;53.64
15604;BME280;7902;49.042;9.092;2022-10-04T15:18:08;99566.69;;;19.42;55.30
15604;BME280;7902;49.042;9.092;2022-10-04T15:21:00;99566.25;;;19.28;54.34
15604;BME280;7902;49.042;9.092;2022-10-04T15:23:38;99570.13;;;19.34;53.92
15604;BME280;7902;49.042;9.092;2022-10-04T15:28:56;99560.41;;;19.25;54.55
15604;BME280;7902;49.042;9.092;2022-10-04T15:39:54;99569.38;;;19.24;54.32
15604;BME280;7902;49.042;9.092;2022-10-04T15:42:32;99566.34;;;19.19;55.48
15604;BME280;7902;49.042;9.092;2022-10-04T15:50:56;99551.22;;;19.19;54.37
15604;BME280;7902;49.042;9.092;2022-10-04T15:56:00;99541.69;;;19.17;54.35
15604;BME280;7902;49.042;9.092;2022-10-04T15:58:48;99540.72;;;19.18;54.03
15604;BME280;7902;49.042;9.092;2022-10-04T16:07:10;99522.34;;;19.07;54.77
15604;BME280;7902;49.042;9.092;2022-10-04T16:10:00;99530.16;;;19.08;54.69
15604;BME280;7902;49.042;9.092;2022-10-04T16:12:39;99528.94;;;19.03;54.50
15604;BME280;7902;49.042;9.092;2022-10-04T16:15:16;99526.97;;;19.05;54.59
15604;BME280;7902;49.042;9.092;2022-10-04T16:20:31;99522.94;;;19.01;54.82
15604;BME280;7902;49.042;9.092;2022-10-04T16:23:34;99529.56;;;18.97;54.86
15604;BME280;7902;49.042;9.092;2022-10-04T16:26:03;99523.19;;;18.90;56.04
15604;BME280;7902;49.042;9.092;2022-10-04T16:28:33;99525.97;;;18.88;55.58
15604;BME280;7902;49.042;9.092;2022-10-04T16:31:20;99536.19;;;18.93;55.36
15604;BME280;7902;49.042;9.092;2022-10-04T16:34:00;99536.81;;;18.87;55.75
15604;BME280;7902;49.042;9.092;2022-10-04T16:39:36;99527.97;;;18.86;56.13
15604;BME280;7902;49.042;9.092;2022-10-04T16:42:53;99532.78;;;18.82;56.27
15604;BME280;7902;49.042;9.092;2022-10-04T16:56:27;99553.13;;;18.56;58.30
15604;BME280;7902;49.042;9.092;2022-10-04T17:07:30;99551.84;;;18.33;59.73
15604;BME280;7902;49.042;9.092;2022-10-04T17:18:42;99532.91;;;18.18;60.80
15604;BME280;7902;49.042;9.092;2022-10-04T17:24:17;99533.88;;;17.90;61.02
15604;BME280;7902;49.042;9.092;2022-10-04T17:26:54;99525.66;;;17.93;60.53
15604;BME280;7902;49.042;9.092;2022-10-04T17:29:42;99529.03;;;17.85;61.10
15604;BME280;7902;49.042;9.092;2022-10-04T17:35:05;99522.47;;;17.80;60.83
15604;BME280;7902;49.042;9.092;2022-10-04T17:43:10;99512.19;;;17.67;60.97
15604;BME280;7902;49.042;9.092;2022-10-04T17:48:18;99521.28;;;17.65;60.88
15604;BME280;7902;49.042;9.092;2022-10-04T17:51:26;99520.06;;;17.59;60.92
15604;BME280;7902;49.042;9.092;2022-10-04T17:54:20;99527.19;;;17.49;61.44
15604;BME280;7902;49.042;9.092;2022-10-04T17:59:50;99521.88;;;17.49;61.16
15604;BME280;7902;49.042;9.092;2022-10-04T18:02:59;99515.84;;;17.47;61.02
15604;BME280;7902;49.042;9.092;2022-10-04T18:05:32;99517.03;;;17.35;61.27
15604;BME280;7902;49.042;9.092;2022-10-04T18:08:45;99519.38;;;17.38;60.91
15604;BME280;7902;49.042;9.092;2022-10-04T18:10:56;99525.28;;;17.32;60.70
15604;BME280;7902;49.042;9.092;2022-10-04T18:16:30;99521.50;;;17.34;61.14
15604;BME280;7902;49.042;9.092;2022-10-04T18:22:08;99530.31;;;17.25;61.03
15604;BME280;7902;49.042;9.092;2022-10-04T18:24:36;99530.75;;;17.21;61.16
15604;BME280;7902;49.042;9.092;2022-10-04T18:27:15;99534.38;;;17.20;61.33
15604;BME280;7902;49.042;9.092;2022-10-04T18:30:12;99542.22;;;17.11;61.61
15604;BME280;7902;49.042;9.092;2022-10-04T18:32:44;99534.13;;;17.03;62.00
15604;BME280;7902;49.042;9.092;2022-10-04T18:35:18;99547.41;;;17.03;61.58
15604;BME280;7902;49.042;9.092;2022-10-04T18:37:46;99555.06;;;17.06;61.52
15604;BME280;7902;49.042;9.092;2022-10-04T18:40:21;99547.94;;;17.07;61.61
15604;BME280;7902;49.042;9.092;2022-10-04T18:42:53;99558.44;;;16.99;61.93
15604;BME280;7902;49.042;9.092;2022-10-04T18:45:29;99566.66;;;16.96;61.39
15604;BME280;7902;49.042;9.092;2022-10-04T18:47:58;99561.50;;;16.94;61.66
15604;BME280;7902;49.042;9.092;2022-10-04T18:50:34;99556.75;;;16.88;62.25
15604;BME280;7902;49.042;9.092;2022-10-04T18:53:40;99563.03;;;16.87;61.80
15604;BME280;7902;49.042;9.092;2022-10-04T18:56:09;99566.22;;;16.81;61.97
15604;BME280;7902;49.042;9.092;2022-10-04T19:07:56;99558.69;;;16.67;62.26
15604;BME280;7902;49.042;9.092;2022-10-04T19:10:26;99563.19;;;16.76;61.46
15604;BME280;7902;49.042;9.092;2022-10-04T19:26:43;99569.66;;;16.43;61.76
15604;BME280;7902;49.042;9.092;2022-10-04T19:32:14;99575.63;;;16.36;61.98
15604;BME280;7902;49.042;9.092;2022-10-04T19:35:10;99574.97;;;16.34;62.04
15604;BME280;7902;49.042;9.092;2022-10-04T19:40:35;99582.03;;;16.23;62.67
15604;BME280;7902;49.042;9.092;2022-10-04T19:43:07;99590.94;;;16.22;61.81
15604;BME280;7902;49.042;9.092;2022-10-04T19:48:22;99586.19;;;16.16;62.48
15604;BME280;7902;49.042;9.092;2022-10-04T19:50:56;99594.00;;;16.18;62.19
15604;BME280;7902;49.042;9.092;2022-10-04T19:53:35;99601.25;;;16.16;62.40
15604;BME280;7902;49.042;9.092;2022-10-04T19:56:14;99608.22;;;16.17;62.79
15604;BME280;7902;49.042;9.092;2022-10-04T19:58:54;99607.13;;;16.19;61.97
15604;BME280;7902;49.042;9.092;2022-10-04T20:01:23;99613.81;;;16.14;62.79
15604;BME280;7902;49.042;9.092;2022-10-04T20:03:51;99618.50;;;16.10;62.72
15604;BME280;7902;49.042;9.092;2022-10-04T20:06:37;99614.88;;;16.11;62.73
15604;BME280;7902;49.042;9.092;2022-10-04T20:09:22;99614.03;;;16.11;62.39
15604;BME280;7902;49.042;9.092;2022-10-04T20:11:50;99621.03;;;16.12;62.67
15604;BME280;7902;49.042;9.092;2022-10-04T20:19:16;99621.44;;;16.07;62.11
15604;BME280;7902;49.042;9.092;2022-10-04T20:21:42;99630.50;;;16.05;62.92
15604;BME280;7902;49.042;9.092;2022-10-04T20:24:15;99634.38;;;16.01;62.38
15604;BME280;7902;49.042;9.092;2022-10-04T20:26:43;99648.59;;;16.00;63.52
15604;BME280;7902;49.042;9.092;2022-10-04T20:34:49;99644.13;;;16.00;63.08
15604;BME280;7902;49.042;9.092;2022-10-04T20:37:15;99643.88;;;16.03;62.36
15604;BME280;7902;49.042;9.092;2022-10-04T20:45:30;99655.91;;;15.87;62.78
15604;BME280;7902;49.042;9.092;2022-10-04T20:47:51;99663.25;;;15.83;63.27
15604;BME280;7902;49.042;9.092;2022-10-04T20:53:05;99666.00;;;15.72;63.68
15604;BME280;7902;49.042;9.092;2022-10-04T20:55:36;99668.19;;;15.67;63.33
15604;BME280;7902;49.042;9.092;2022-10-04T21:00:53;99659.25;;;15.68;63.80
15604;BME280;7902;49.042;9.092;2022-10-04T21:03:20;99658.56;;;15.66;63.44
15604;BME280;7902;49.042;9.092;2022-10-04T21:06:18;99664.25;;;15.61;63.32
15604;BME280;7902;49.042;9.092;2022-10-04T21:08:45;99667.47;;;15.65;63.16
15604;BME280;7902;49.042;9.092;2022-10-04T21:11:15;99657.16;;;15.62;63.59
15604;BME280;7902;49.042;9.092;2022-10-04T21:13:56;99674.84;;;15.61;63.08
15604;BME280;7902;49.042;9.092;2022-10-04T21:16:38;99667.75;;;15.62;64.37
15604;BME280;7902;49.042;9.092;2022-10-04T21:19:29;99666.91;;;15.61;64.22
15604;BME280;7902;49.042;9.092;2022-10-04T21:24:42;99667.78;;;15.51;64.73
15604;BME280;7902;49.042;9.092;2022-10-04T21:27:34;99668.38;;;15.54;64.45
15604;BME280;7902;49.042;9.092;2022-10-04T21:32:33;99672.13;;;15.52;64.62
15604;BME280;7902;49.042;9.092;2022-10-04T21:34:59;99678.47;;;15.49;64.28
15604;BME280;7902;49.042;9.092;2022-10-04T21:37:25;99678.72;;;15.46;64.12
15604;BME280;7902;49.042;9.092;2022-10-04T21:39:51;99682.22;;;15.47;65.13
15604;BME280;7902;49.042;9.092;2022-10-04T21:42:17;99687.25;;;15.50;64.73
15604;BME280;7902;49.042;9.092;2022-10-04T21:44:43;99684.25;;;15.54;64.56
15604;BME280;7902;49.042;9.092;2022-10-04T21:47:09;99689.31;;;15.57;64.79
15604;BME280;7902;49.042;9.092;2022-10-04T21:49:35;99684.84;;;15.58;64.43
15604;BME280;7902;49.042;9.092;2022-10-04T21:52:01;99681.81;;;15.62;64.86
15604;BME280;7902;49.042;9.092;2022-10-04T21:54:27;99682.66;;;15.63;64.14
15604;BME280;7902;49.042;9.092;2022-10-04T21:56:53;99680.72;;;15.65;65.01
15604;BME280;7902;49.042;9.092;2022-10-04T21:59:19;99683.25;;;15.66;64.78
15604;BME280;7902;49.042;9.092;2022-10-04T22:01:45;99680.59;;;15.66;64.89
15604;BME280;7902;49.042;9.092;2022-10-04T22:04:11;99675.88;;;15.70;64.76
15604;BME280;7902;49.042;9.092;2022-10-04T22:06:37;99676.84;;;15.69;64.13
15604;BME280;7902;49.042;9.092;2022-10-04T22:09:03;99666.78;;;15.63;64.89
15604;BME280;7902;49.042;9.092;2022-10-04T22:11:29;99667.28;;;15.57;64.20
15604;BME280;7902;49.042;9.092;2022-10-04T22:13:55;99667.56;;;15.54;64.18
15604;BME280;7902;49.042;9.092;2022-10-04T22:16:21;99658.91;;;15.52;65.25
15604;BME280;7902;49.042;9.092;2022-10-04T22:18:47;99651.28;;;15.58;64.63